createdAt,value
2022-10-23T00:00:10.660Z,21.00
2022-10-23T00:01:44.481Z,20.30
2022-10-23T00:03:16.485Z,21.30
2022-10-23T00:04:52.130Z,23.15
2022-10-23T00:06:24.865Z,20.13
2022-10-23T00:07:59.151Z,21.75
2022-10-23T00:09:31.317Z,19.20
2022-10-23T00:11:11.600Z,20.33
2022-10-23T00:12:43.958Z,21.75
2022-10-23T00:14:21.721Z,21.73
2022-10-23T00:15:53.713Z,23.80
2022-10-23T00:17:25.645Z,22.35
2022-10-23T00:18:57.801Z,23.88
2022-10-23T00:20:29.945Z,21.77
2022-10-23T00:22:01.961Z,24.17
2022-10-23T00:23:34.283Z,17.63
2022-10-23T00:25:07.972Z,19.02
2022-10-23T00:26:41.010Z,16.75
2022-10-23T00:28:19.229Z,18.08
2022-10-23T00:29:51.245Z,17.70
2022-10-23T00:31:25.423Z,17.45
2022-10-23T00:32:57.455Z,18.65
2022-10-23T00:34:29.516Z,19.38
2022-10-23T00:36:01.487Z,16.77
2022-10-23T00:37:33.668Z,16.88
2022-10-23T00:39:06.343Z,17.33
2022-10-23T00:40:39.358Z,16.80
2022-10-23T00:42:15.964Z,15.75
2022-10-23T00:43:58.787Z,18.80
2022-10-23T00:45:33.719Z,16.77
2022-10-23T00:47:05.790Z,18.30
2022-10-23T00:48:37.825Z,16.00
2022-10-23T00:50:09.920Z,15.10
2022-10-23T00:51:45.600Z,16.42
2022-10-23T00:53:18.494Z,15.07
2022-10-23T00:54:50.509Z,14.20
2022-10-23T00:56:22.497Z,18.40
2022-10-23T00:57:55.632Z,14.55
2022-10-23T00:59:28.111Z,15.90
2022-10-23T01:01:00.213Z,15.77
2022-10-23T01:02:32.231Z,15.85
2022-10-23T01:04:06.459Z,18.23
2022-10-23T01:07:45.703Z,15.52
2022-10-23T01:09:31.960Z,15.68
2022-10-23T01:11:15.743Z,15.40
2022-10-23T01:13:43.099Z,15.02
2022-10-23T01:15:26.478Z,16.33
2022-10-23T01:17:09.242Z,16.65
2022-10-23T01:18:49.796Z,17.73
2022-10-23T01:20:33.608Z,16.80
2022-10-23T01:22:17.633Z,16.27
2022-10-23T01:25:54.951Z,15.95
2022-10-23T01:27:32.201Z,14.70
2022-10-23T01:29:04.358Z,16.67
2022-10-23T01:32:18.933Z,15.27
2022-10-23T01:34:06.533Z,15.20
2022-10-23T01:35:50.017Z,15.80
2022-10-23T01:37:30.947Z,15.68
2022-10-23T01:39:07.623Z,15.18
2022-10-23T01:40:58.428Z,18.45
2022-10-23T01:42:35.237Z,13.77
2022-10-23T01:44:17.273Z,14.73
2022-10-23T01:45:56.843Z,15.95
2022-10-23T01:47:30.561Z,16.08
2022-10-23T01:49:03.663Z,14.73
2022-10-23T01:50:37.094Z,16.88
2022-10-23T01:53:44.205Z,14.93
2022-10-23T01:55:17.040Z,14.02
2022-10-23T01:56:50.595Z,14.30
2022-10-23T02:00:01.110Z,17.98
2022-10-23T02:01:34.432Z,15.27
2022-10-23T02:05:10.609Z,14.48
2022-10-23T02:06:42.660Z,17.55
2022-10-23T02:08:14.838Z,15.90
2022-10-23T02:09:46.848Z,16.10
2022-10-23T02:11:21.441Z,16.35
2022-10-23T02:13:13.030Z,16.92
2022-10-23T02:15:12.646Z,17.20
2022-10-23T02:16:55.605Z,19.45
2022-10-23T02:18:48.449Z,15.02
2022-10-23T02:20:22.759Z,16.35
2022-10-23T02:22:00.551Z,18.35
2022-10-23T02:23:33.542Z,17.40
2022-10-23T02:25:33.376Z,17.52
2022-10-23T02:27:15.307Z,16.95
2022-10-23T02:28:54.679Z,15.63
2022-10-23T02:30:26.759Z,18.45
2022-10-23T02:31:58.894Z,16.02
2022-10-23T02:33:31.378Z,15.20
2022-10-23T02:35:03.984Z,14.45
2022-10-23T02:36:38.745Z,14.73
2022-10-23T02:38:30.436Z,12.57
2022-10-23T02:40:05.263Z,16.48
2022-10-23T02:41:55.806Z,13.32
2022-10-23T02:43:36.055Z,14.25
2022-10-23T02:45:28.911Z,14.05
2022-10-23T02:47:00.933Z,16.58
2022-10-23T02:48:43.747Z,15.02
2022-10-23T02:50:28.520Z,14.38
2022-10-23T02:52:29.738Z,15.55
2022-10-23T02:54:37.514Z,13.63
2022-10-23T02:56:15.130Z,15.02
2022-10-23T02:58:09.194Z,14.60
2022-10-23T02:59:59.726Z,15.40
2022-10-23T03:03:58.549Z,13.38
2022-10-23T03:05:36.198Z,15.93
2022-10-23T03:07:12.334Z,13.82
2022-10-23T03:08:48.948Z,15.38
2022-10-23T03:10:21.307Z,14.70
2022-10-23T03:11:53.354Z,25.13
2022-10-23T03:13:25.413Z,47.78
2022-10-23T03:14:57.448Z,19.38
2022-10-23T03:16:29.435Z,18.77
2022-10-23T03:18:01.515Z,19.10
2022-10-23T03:19:33.531Z,20.17
2022-10-23T03:21:05.583Z,18.65
2022-10-23T03:22:38.095Z,16.92
2022-10-23T03:24:10.104Z,17.20
2022-10-23T03:25:42.219Z,15.50
2022-10-23T03:27:14.259Z,16.33
2022-10-23T03:28:46.322Z,16.92
2022-10-23T03:30:18.397Z,15.95
2022-10-23T03:31:50.488Z,15.55
2022-10-23T03:33:23.011Z,17.08
2022-10-23T03:34:54.994Z,21.17
2022-10-23T03:36:26.921Z,13.80
2022-10-23T03:37:58.988Z,18.50
2022-10-23T03:39:30.977Z,22.50
2022-10-23T03:41:05.824Z,20.65
2022-10-23T03:42:37.854Z,26.52
2022-10-23T03:44:09.878Z,24.30
2022-10-23T03:45:41.915Z,26.20
2022-10-23T03:47:16.383Z,17.15
2022-10-23T03:48:48.394Z,18.42
2022-10-23T03:50:20.867Z,20.73
2022-10-23T03:51:53.295Z,18.33
2022-10-23T03:53:25.336Z,19.02
2022-10-23T03:54:57.365Z,18.85
2022-10-23T03:56:29.395Z,18.23
2022-10-23T03:58:01.528Z,16.48
2022-10-23T03:59:33.499Z,22.02
2022-10-23T04:01:05.726Z,20.98
2022-10-23T04:02:37.993Z,18.90
2022-10-23T04:04:10.092Z,18.45
2022-10-23T04:05:42.680Z,19.77
2022-10-23T04:07:14.609Z,23.88
2022-10-23T04:08:46.713Z,37.70
2022-10-23T04:10:18.828Z,48.45
2022-10-23T04:11:50.821Z,70.93
2022-10-23T04:13:22.925Z,62.97
2022-10-23T04:14:55.016Z,39.92
2022-10-23T04:16:27.194Z,31.40
2022-10-23T04:17:59.195Z,29.35
2022-10-23T04:19:31.361Z,25.58
2022-10-23T04:21:03.598Z,27.08
2022-10-23T04:22:35.652Z,23.50
2022-10-23T04:24:07.843Z,29.25
2022-10-23T04:25:39.918Z,25.75
2022-10-23T04:27:12.015Z,26.40
2022-10-23T04:28:44.068Z,26.17
2022-10-23T04:30:16.142Z,28.73
2022-10-23T04:31:48.413Z,32.53
2022-10-23T04:33:23.433Z,38.33
2022-10-23T04:34:55.631Z,101.30
2022-10-23T04:36:27.712Z,102.88
2022-10-23T04:37:59.723Z,96.95
2022-10-23T04:39:31.734Z,76.00
2022-10-23T04:41:03.769Z,77.47
2022-10-23T04:42:35.772Z,95.22
2022-10-23T04:44:08.094Z,140.75
2022-10-23T04:45:40.261Z,120.18
2022-10-23T04:47:12.441Z,154.80
2022-10-23T04:48:44.589Z,217.02
2022-10-23T04:50:16.915Z,125.18
2022-10-23T04:51:48.964Z,140.77
2022-10-23T04:53:21.149Z,120.50
2022-10-23T04:54:53.202Z,116.68
2022-10-23T04:56:25.260Z,111.13
2022-10-23T04:57:57.251Z,89.93
2022-10-23T04:59:29.253Z,71.30
2022-10-23T05:02:35.182Z,39.13
2022-10-23T05:04:07.367Z,43.08
2022-10-23T05:05:39.434Z,55.30
2022-10-23T05:07:11.548Z,58.88
2022-10-23T05:08:43.643Z,61.70
2022-10-23T05:10:15.984Z,47.55
2022-10-23T05:11:48.099Z,45.92
2022-10-23T05:13:20.592Z,49.78
2022-10-23T05:14:52.885Z,42.22
2022-10-23T05:16:33.297Z,41.22
2022-10-23T05:18:13.309Z,36.33
2022-10-23T05:19:54.037Z,30.23
2022-10-23T05:21:28.315Z,30.85
2022-10-23T05:23:01.146Z,37.90
2022-10-23T05:24:33.145Z,29.13
2022-10-23T05:26:05.760Z,31.05
2022-10-23T05:27:37.783Z,29.13
2022-10-23T05:29:09.789Z,27.33
2022-10-23T05:32:16.456Z,25.40
2022-10-23T05:33:48.614Z,26.15
2022-10-23T05:35:23.124Z,26.13
2022-10-23T05:36:55.822Z,22.40
2022-10-23T05:38:30.336Z,28.10
2022-10-23T05:40:02.485Z,28.27
2022-10-23T05:41:34.611Z,31.75
2022-10-23T05:43:06.852Z,37.08
2022-10-23T05:44:39.089Z,28.00
2022-10-23T05:46:11.389Z,28.63
2022-10-23T05:47:49.729Z,38.05
2022-10-23T05:49:21.964Z,59.60
2022-10-23T05:50:53.971Z,56.08
2022-10-23T05:52:26.341Z,50.45
2022-10-23T05:53:58.493Z,44.50
2022-10-23T05:55:30.881Z,27.63
2022-10-23T05:57:03.159Z,36.10
2022-10-23T05:58:35.467Z,47.63
2022-10-23T06:00:11.696Z,43.75
2022-10-23T06:01:46.898Z,43.00
2022-10-23T06:03:19.070Z,41.03
2022-10-23T06:04:51.154Z,34.35
2022-10-23T06:06:23.374Z,25.15
2022-10-23T06:08:00.136Z,32.95
2022-10-23T06:09:32.518Z,30.17
2022-10-23T06:11:15.132Z,20.92
2022-10-23T06:12:47.145Z,24.08
2022-10-23T06:14:19.457Z,29.90
2022-10-23T06:15:51.510Z,22.77
2022-10-23T06:17:23.656Z,16.08
2022-10-23T06:18:56.336Z,17.20
2022-10-23T06:20:28.877Z,17.15
2022-10-23T06:22:01.125Z,14.73
2022-10-23T06:23:34.723Z,14.20
2022-10-23T06:25:07.607Z,15.68
2022-10-23T06:26:39.934Z,17.83
2022-10-23T06:28:12.432Z,14.85
2022-10-23T06:29:46.313Z,14.20
2022-10-23T06:31:20.012Z,15.73
2022-10-23T06:32:52.296Z,11.65
2022-10-23T06:34:24.467Z,13.20
2022-10-23T06:37:30.395Z,11.43
2022-10-23T06:39:02.801Z,11.60
2022-10-23T06:40:35.248Z,12.48
2022-10-23T06:42:07.833Z,10.83
2022-10-23T06:43:40.228Z,13.60
2022-10-23T06:45:12.538Z,11.55
2022-10-23T06:46:47.532Z,11.82
2022-10-23T06:48:19.636Z,11.02
2022-10-23T06:49:51.917Z,11.90
2022-10-23T06:51:25.578Z,13.02
2022-10-23T06:52:57.991Z,12.15
2022-10-23T06:54:30.254Z,12.18
2022-10-23T06:56:03.211Z,11.70
2022-10-23T06:57:35.813Z,12.68
2022-10-23T06:59:08.116Z,14.43
2022-10-23T07:00:40.593Z,11.27
2022-10-23T07:02:12.836Z,12.27
2022-10-23T07:03:45.621Z,10.73
2022-10-23T07:05:18.604Z,11.95
2022-10-23T07:06:50.809Z,12.68
2022-10-23T07:08:23.227Z,16.13
2022-10-23T07:09:55.338Z,11.90
2022-10-23T07:11:27.755Z,10.35
2022-10-23T07:13:01.416Z,11.45
2022-10-23T07:14:36.307Z,12.32
2022-10-23T07:16:19.640Z,9.73
2022-10-23T07:17:51.767Z,10.93
2022-10-23T07:19:25.513Z,10.10
2022-10-23T07:20:59.102Z,10.38
2022-10-23T07:22:31.541Z,10.32
2022-10-23T07:24:04.373Z,15.60
2022-10-23T07:25:36.664Z,8.63
2022-10-23T07:27:08.793Z,11.38
2022-10-23T07:28:41.973Z,8.43
2022-10-23T07:30:15.330Z,10.98
2022-10-23T07:33:19.683Z,9.77
2022-10-23T07:34:51.980Z,11.85
2022-10-23T07:36:24.368Z,12.25
2022-10-23T07:37:57.040Z,10.57
2022-10-23T07:39:29.380Z,9.80
2022-10-23T07:41:02.276Z,13.73
2022-10-23T07:42:34.701Z,8.43
2022-10-23T07:44:07.210Z,9.43
2022-10-23T07:45:39.489Z,9.98
2022-10-23T07:47:11.611Z,10.13
2022-10-23T07:48:44.097Z,8.27
2022-10-23T07:51:51.406Z,10.07
2022-10-23T07:53:25.851Z,8.93
2022-10-23T07:54:58.026Z,9.25
2022-10-23T07:56:30.364Z,8.40
2022-10-23T07:58:02.619Z,8.48
2022-10-23T07:59:37.903Z,7.85
2022-10-23T08:01:18.538Z,7.85
2022-10-23T08:02:51.002Z,7.47
2022-10-23T08:04:23.611Z,7.63
2022-10-23T08:05:56.991Z,6.70
2022-10-23T08:09:05.484Z,6.95
2022-10-23T08:10:38.987Z,7.00
2022-10-23T08:12:11.420Z,6.68
2022-10-23T08:13:44.691Z,7.27
2022-10-23T08:16:49.223Z,8.38
2022-10-23T08:18:21.502Z,7.32
2022-10-23T08:19:53.872Z,8.55
2022-10-23T08:21:26.285Z,6.65
2022-10-23T08:22:58.552Z,7.20
2022-10-23T08:24:30.775Z,7.57
2022-10-23T08:26:05.723Z,7.05
2022-10-23T08:27:38.912Z,7.50
2022-10-23T08:29:11.349Z,7.35
2022-10-23T08:30:43.689Z,7.23
2022-10-23T08:32:16.057Z,6.55
2022-10-23T08:36:53.905Z,8.55
2022-10-23T08:38:26.232Z,8.02
2022-10-23T08:39:58.542Z,6.30
2022-10-23T08:41:43.301Z,8.68
2022-10-23T08:43:21.860Z,9.63
2022-10-23T08:45:27.879Z,9.13
2022-10-23T08:47:12.948Z,7.55
2022-10-23T08:48:53.231Z,10.10
2022-10-23T08:52:47.454Z,9.00
2022-10-23T08:54:47.405Z,10.88
2022-10-23T08:56:29.466Z,8.00
2022-10-23T08:58:03.211Z,9.98
2022-10-23T08:59:59.453Z,10.50
2022-10-23T09:01:38.559Z,7.78
2022-10-23T09:03:13.555Z,21.90
2022-10-23T09:04:47.889Z,8.70
2022-10-23T09:06:36.017Z,7.70
2022-10-23T09:08:34.069Z,7.35
2022-10-23T09:10:31.541Z,7.70
2022-10-23T09:12:07.852Z,7.30
2022-10-23T09:13:50.849Z,8.63
2022-10-23T09:15:36.022Z,8.48
2022-10-23T09:17:25.794Z,7.15
2022-10-23T09:18:58.359Z,6.63
2022-10-23T09:20:35.041Z,8.10
2022-10-23T09:22:07.479Z,6.88
2022-10-23T09:23:39.861Z,7.28
2022-10-23T09:25:23.321Z,8.90
2022-10-23T09:26:56.108Z,6.95
2022-10-23T09:28:32.027Z,8.52
2022-10-23T09:30:04.856Z,8.18
2022-10-23T09:31:49.110Z,8.90
2022-10-23T09:33:26.662Z,6.38
2022-10-23T09:34:59.133Z,7.70
2022-10-23T09:36:31.483Z,7.50
2022-10-23T09:38:03.751Z,6.50
2022-10-23T09:39:37.017Z,6.97
2022-10-23T09:43:04.194Z,8.50
2022-10-23T09:44:36.489Z,7.30
2022-10-23T09:46:09.811Z,5.95
2022-10-23T09:47:42.629Z,7.90
2022-10-23T09:49:20.995Z,6.68
2022-10-23T09:51:17.953Z,5.20
2022-10-23T09:52:53.557Z,5.53
2022-10-23T09:54:25.794Z,5.35
2022-10-23T09:56:02.307Z,5.35
2022-10-23T09:57:42.009Z,6.75
2022-10-23T09:59:14.611Z,6.32
2022-10-23T10:00:51.133Z,5.45
2022-10-23T10:02:30.857Z,6.95
2022-10-23T10:04:03.194Z,7.28
2022-10-23T10:05:37.942Z,6.50
2022-10-23T10:07:21.967Z,7.15
2022-10-23T10:10:45.744Z,7.57
2022-10-23T10:12:46.952Z,11.32
2022-10-23T10:14:56.140Z,6.65
2022-10-23T10:16:48.608Z,6.10
2022-10-23T10:18:48.096Z,7.72
2022-10-23T10:20:46.763Z,7.80
2022-10-23T10:22:30.733Z,11.38
2022-10-23T10:24:22.173Z,7.50
2022-10-23T10:26:16.674Z,5.30
2022-10-23T10:28:07.425Z,7.25
2022-10-23T10:30:01.153Z,7.30
2022-10-23T10:32:02.498Z,7.22
2022-10-23T10:33:53.675Z,10.45
2022-10-23T10:35:34.793Z,6.07
2022-10-23T10:37:32.944Z,5.90
2022-10-23T10:39:12.257Z,5.53
2022-10-23T10:41:05.918Z,5.97
2022-10-23T10:42:49.368Z,4.07
2022-10-23T10:46:29.060Z,6.68
2022-10-23T10:48:08.217Z,6.38
2022-10-23T10:49:58.008Z,5.85
2022-10-23T10:51:39.657Z,5.13
2022-10-23T10:53:45.743Z,5.22
2022-10-23T10:55:54.423Z,5.68
2022-10-23T10:57:33.563Z,7.80
2022-10-23T10:59:13.191Z,7.90
2022-10-23T11:00:46.088Z,5.13
2022-10-23T11:02:29.463Z,5.25
2022-10-23T11:04:19.498Z,7.03
2022-10-23T11:05:52.307Z,6.07
2022-10-23T11:07:27.956Z,4.72
2022-10-23T11:09:19.714Z,4.25
2022-10-23T11:10:57.592Z,4.22
2022-10-23T11:12:33.096Z,6.28
2022-10-23T11:14:05.639Z,6.43
2022-10-23T11:15:43.715Z,7.45
2022-10-23T11:17:40.159Z,4.75
2022-10-23T11:19:34.735Z,12.35
2022-10-23T11:21:27.619Z,8.48
2022-10-23T11:23:36.911Z,6.18
2022-10-23T11:25:32.626Z,4.30
2022-10-23T11:27:27.562Z,4.93
2022-10-23T11:29:14.187Z,13.95
2022-10-23T11:31:11.539Z,10.45
2022-10-23T11:33:02.291Z,9.23
2022-10-23T11:34:46.951Z,7.18
2022-10-23T11:36:21.783Z,7.00
2022-10-23T11:38:28.580Z,5.78
2022-10-23T11:40:22.584Z,5.07
2022-10-23T11:42:19.131Z,4.72
2022-10-23T11:43:57.484Z,3.47
2022-10-23T11:45:47.934Z,4.60
2022-10-23T11:47:39.339Z,4.32
2022-10-23T11:49:25.160Z,5.55
2022-10-23T11:50:59.161Z,6.07
2022-10-23T11:52:50.656Z,9.00
2022-10-23T11:54:28.778Z,5.47
2022-10-23T11:56:27.398Z,5.50
2022-10-23T11:58:05.907Z,4.95
2022-10-23T11:59:50.267Z,3.47
2022-10-23T12:01:47.315Z,3.55
2022-10-23T12:03:24.606Z,5.90
2022-10-23T12:04:57.113Z,4.22
2022-10-23T12:06:52.595Z,4.68
2022-10-23T12:08:28.163Z,5.97
2022-10-23T12:10:03.239Z,5.55
2022-10-23T12:11:48.184Z,13.70
2022-10-23T12:13:38.383Z,3.22
2022-10-23T12:15:16.440Z,5.18
2022-10-23T12:16:48.771Z,5.65
2022-10-23T12:18:22.373Z,3.70
